createdAt,value
2022-08-21T00:00:30.037Z,2.47
2022-08-21T00:03:09.357Z,1.77
2022-08-21T00:05:47.655Z,2.10
2022-08-21T00:08:16.905Z,2.17
2022-08-21T00:10:45.290Z,2.40
2022-08-21T00:13:14.336Z,1.88
2022-08-21T00:15:45.940Z,2.25
2022-08-21T00:18:13.269Z,2.50
2022-08-21T00:20:43.683Z,1.85
2022-08-21T00:23:10.829Z,1.92
2022-08-21T00:25:38.712Z,2.15
2022-08-21T00:28:07.372Z,2.25
2022-08-21T00:30:35.197Z,2.08
2022-08-21T00:33:03.623Z,1.92
2022-08-21T00:35:36.813Z,2.30
2022-08-21T00:38:06.521Z,1.92
2022-08-21T00:40:55.655Z,1.88
2022-08-21T00:43:31.407Z,1.73
2022-08-21T00:45:59.641Z,2.15
2022-08-21T00:48:27.456Z,2.42
2022-08-21T00:51:14.541Z,2.45
2022-08-21T00:53:45.864Z,2.03
2022-08-21T00:56:22.171Z,2.40
2022-08-21T00:58:49.655Z,2.08
2022-08-21T01:01:21.848Z,2.17
2022-08-21T01:03:50.355Z,2.08
2022-08-21T01:06:17.663Z,2.08
2022-08-21T01:08:47.087Z,2.58
2022-08-21T01:11:16.198Z,2.40
2022-08-21T01:13:47.059Z,2.30
2022-08-21T01:16:23.351Z,2.38
2022-08-21T01:18:52.007Z,2.03
2022-08-21T01:21:22.128Z,2.10
2022-08-21T01:23:56.817Z,2.08
2022-08-21T01:26:33.791Z,2.30
2022-08-21T01:29:23.611Z,2.28
2022-08-21T01:31:50.853Z,1.90
2022-08-21T01:34:18.506Z,2.08
2022-08-21T01:36:47.960Z,2.20
2022-08-21T01:39:20.553Z,2.47
2022-08-21T01:41:47.300Z,2.22
2022-08-21T01:44:14.377Z,2.17
2022-08-21T01:46:41.259Z,2.30
2022-08-21T01:49:08.473Z,2.65
2022-08-21T01:51:35.368Z,2.75
2022-08-21T01:54:02.246Z,2.28
2022-08-21T01:56:29.070Z,2.30
2022-08-21T01:58:56.133Z,2.30
2022-08-21T02:01:23.038Z,2.40
2022-08-21T02:03:49.944Z,2.67
2022-08-21T02:06:19.233Z,2.63
2022-08-21T02:08:48.135Z,2.65
2022-08-21T02:11:15.371Z,2.45
2022-08-21T02:13:42.134Z,2.63
2022-08-21T02:16:10.099Z,2.75
2022-08-21T02:18:37.626Z,2.65
2022-08-21T02:21:06.321Z,2.60
2022-08-21T02:23:34.973Z,2.70
2022-08-21T02:26:09.762Z,3.22
2022-08-21T02:28:39.088Z,2.83
2022-08-21T02:31:07.744Z,3.47
2022-08-21T02:33:34.628Z,2.28
2022-08-21T02:36:05.567Z,2.63
2022-08-21T02:38:38.796Z,2.97
2022-08-21T02:41:17.009Z,3.05
2022-08-21T02:43:45.168Z,2.53
2022-08-21T02:46:17.127Z,2.78
2022-08-21T02:48:47.350Z,2.45
2022-08-21T02:51:20.838Z,2.90
2022-08-21T02:53:51.557Z,2.65
2022-08-21T02:56:22.834Z,2.80
2022-08-21T02:58:54.678Z,2.80
2022-08-21T03:01:21.606Z,2.75
2022-08-21T03:03:52.319Z,2.72
2022-08-21T03:06:22.700Z,2.72
2022-08-21T03:08:50.009Z,2.85
2022-08-21T03:11:17.077Z,2.72
2022-08-21T03:13:44.707Z,2.95
2022-08-21T03:16:11.490Z,2.30
2022-08-21T03:18:39.328Z,3.00
2022-08-21T03:21:07.549Z,2.75
2022-08-21T03:23:34.316Z,2.78
2022-08-21T03:26:01.314Z,2.58
2022-08-21T03:28:28.534Z,3.08
2022-08-21T03:30:55.659Z,2.78
2022-08-21T03:33:25.117Z,3.00
2022-08-21T03:36:13.100Z,2.65
2022-08-21T03:38:40.505Z,2.53
2022-08-21T03:41:11.149Z,2.72
2022-08-21T03:43:39.427Z,2.67
2022-08-21T03:46:07.841Z,2.28
2022-08-21T03:48:37.095Z,3.10
2022-08-21T03:51:04.549Z,3.10
2022-08-21T03:53:31.362Z,2.67
2022-08-21T03:56:00.841Z,2.97
2022-08-21T03:58:29.416Z,2.63
2022-08-21T04:01:00.082Z,2.03
2022-08-21T04:03:29.052Z,2.63
2022-08-21T04:05:56.024Z,2.67
2022-08-21T04:08:22.987Z,2.75
2022-08-21T04:10:54.452Z,2.90
2022-08-21T04:13:24.328Z,2.40
2022-08-21T04:15:51.530Z,2.55
2022-08-21T04:18:19.586Z,2.63
2022-08-21T04:20:50.994Z,2.47
2022-08-21T04:23:23.853Z,2.75
2022-08-21T04:25:57.428Z,2.80
2022-08-21T04:28:28.857Z,2.83
2022-08-21T04:30:56.877Z,2.65
2022-08-21T04:33:24.189Z,3.10
2022-08-21T04:35:51.522Z,3.20
2022-08-21T04:38:19.210Z,3.30
2022-08-21T04:40:46.763Z,3.38
2022-08-21T04:43:13.521Z,2.90
2022-08-21T04:45:48.269Z,2.72
2022-08-21T04:48:37.273Z,2.88
2022-08-21T04:51:30.905Z,2.47
2022-08-21T04:54:10.159Z,2.53
2022-08-21T04:56:43.478Z,2.40
2022-08-21T04:59:38.959Z,3.22
2022-08-21T05:02:15.766Z,2.92
2022-08-21T05:04:53.440Z,2.47
2022-08-21T05:07:41.646Z,3.67
2022-08-21T05:10:12.539Z,3.42
2022-08-21T05:12:42.931Z,3.08
2022-08-21T05:15:15.784Z,2.70
2022-08-21T05:17:43.108Z,3.30
2022-08-21T05:20:13.459Z,3.03
2022-08-21T05:22:40.287Z,3.25
2022-08-21T05:25:10.903Z,3.03
2022-08-21T05:27:39.770Z,3.00
2022-08-21T05:30:11.163Z,2.95
2022-08-21T05:32:38.238Z,3.30
2022-08-21T05:35:09.660Z,3.33
2022-08-21T05:37:36.615Z,2.95
2022-08-21T05:40:21.430Z,3.25
2022-08-21T05:42:54.441Z,3.80
2022-08-21T05:45:34.691Z,3.33
2022-08-21T05:48:21.137Z,3.28
2022-08-21T05:50:50.999Z,3.55
2022-08-21T05:53:20.541Z,3.00
2022-08-21T05:55:49.048Z,3.70
2022-08-21T05:58:21.410Z,4.15
2022-08-21T06:00:50.955Z,3.65
2022-08-21T06:03:27.777Z,3.85
2022-08-21T06:05:56.207Z,3.30
2022-08-21T06:08:24.632Z,3.67
2022-08-21T06:10:54.107Z,3.72
2022-08-21T06:13:22.909Z,3.22
2022-08-21T06:15:51.098Z,3.03
2022-08-21T06:18:18.659Z,3.67
2022-08-21T06:20:46.493Z,3.58
2022-08-21T06:23:13.930Z,3.13
2022-08-21T06:25:40.909Z,2.65
2022-08-21T06:28:10.768Z,3.35
2022-08-21T06:30:39.886Z,3.13
2022-08-21T06:33:07.920Z,3.58
2022-08-21T06:35:36.389Z,2.85
2022-08-21T06:38:04.589Z,3.75
2022-08-21T06:40:34.863Z,2.53
2022-08-21T06:43:15.671Z,3.03
2022-08-21T06:45:45.805Z,2.90
2022-08-21T06:48:16.897Z,3.33
2022-08-21T06:50:46.509Z,2.70
2022-08-21T06:53:18.249Z,3.47
2022-08-21T06:55:45.785Z,2.78
2022-08-21T06:58:13.041Z,2.90
2022-08-21T07:00:45.789Z,3.10
2022-08-21T07:03:21.530Z,2.80
2022-08-21T07:05:48.515Z,2.60
2022-08-21T07:08:15.698Z,2.35
2022-08-21T07:10:43.171Z,2.65
2022-08-21T07:13:10.053Z,2.70
2022-08-21T07:15:36.876Z,2.50
2022-08-21T07:18:04.305Z,2.20
2022-08-21T07:20:32.774Z,2.95
2022-08-21T07:23:05.886Z,2.60
2022-08-21T07:25:32.856Z,2.72
2022-08-21T07:27:59.664Z,2.92
2022-08-21T07:30:28.820Z,2.85
2022-08-21T07:32:56.473Z,3.50
2022-08-21T07:35:24.455Z,2.97
2022-08-21T07:37:51.435Z,3.20
2022-08-21T07:40:18.985Z,2.55
2022-08-21T07:42:50.842Z,3.20
2022-08-21T07:45:22.243Z,3.03
2022-08-21T07:47:52.007Z,3.50
2022-08-21T07:50:23.755Z,3.25
2022-08-21T07:52:50.656Z,3.03
2022-08-21T07:55:21.015Z,2.53
2022-08-21T07:57:48.899Z,3.08
2022-08-21T08:00:22.580Z,2.30
2022-08-21T08:02:52.660Z,2.45
2022-08-21T08:05:25.020Z,2.60
2022-08-21T08:07:52.229Z,2.92
2022-08-21T08:10:19.936Z,2.85
2022-08-21T08:12:47.885Z,2.65
2022-08-21T08:15:20.190Z,2.60
2022-08-21T08:17:47.082Z,2.83
2022-08-21T08:20:16.560Z,2.10
2022-08-21T08:22:43.828Z,2.30
2022-08-21T08:25:19.893Z,4.15
2022-08-21T08:27:46.777Z,1.88
2022-08-21T08:30:16.565Z,2.60
2022-08-21T08:32:45.145Z,2.20
2022-08-21T08:35:12.766Z,2.40
2022-08-21T08:37:41.852Z,2.15
2022-08-21T08:40:21.528Z,2.60
2022-08-21T08:42:48.516Z,1.98
2022-08-21T08:45:24.741Z,2.25
2022-08-21T08:48:02.033Z,2.20
2022-08-21T08:50:50.339Z,1.90
2022-08-21T08:53:29.245Z,1.92
2022-08-21T08:55:56.803Z,2.67
2022-08-21T08:58:40.198Z,2.13
2022-08-21T09:01:20.932Z,2.30
2022-08-21T09:03:51.029Z,1.85
2022-08-21T09:06:56.905Z,2.00
2022-08-21T09:09:39.114Z,1.67
2022-08-21T09:12:43.853Z,2.50
2022-08-21T09:15:34.304Z,1.80
2022-08-21T09:18:39.855Z,1.50
2022-08-21T09:21:50.735Z,1.55
2022-08-21T09:24:29.888Z,1.35
2022-08-21T09:27:15.852Z,1.17
2022-08-21T09:29:51.747Z,1.95
2022-08-21T09:32:37.049Z,1.35
2022-08-21T09:35:18.398Z,1.83
2022-08-21T09:38:06.435Z,1.42
2022-08-21T09:40:47.011Z,2.40
2022-08-21T09:43:25.788Z,1.30
2022-08-21T09:46:08.704Z,1.48
2022-08-21T09:48:49.751Z,1.65
2022-08-21T09:51:22.101Z,1.40
2022-08-21T09:54:10.717Z,1.17
2022-08-21T09:57:16.195Z,1.50
2022-08-21T09:59:45.524Z,1.45
2022-08-21T10:02:36.805Z,1.27
2022-08-21T10:05:23.628Z,1.27
2022-08-21T10:07:51.802Z,1.20
2022-08-21T10:10:29.199Z,0.90
2022-08-21T10:13:24.712Z,1.15
2022-08-21T10:16:23.058Z,2.53
2022-08-21T10:19:24.547Z,1.50
2022-08-21T10:22:44.125Z,1.17
2022-08-21T10:26:13.508Z,0.98
2022-08-21T10:29:01.312Z,1.67
2022-08-21T10:32:04.298Z,0.98
2022-08-21T10:35:33.433Z,1.00
2022-08-21T10:38:58.652Z,0.93
2022-08-21T10:42:07.007Z,1.17
2022-08-21T10:44:56.564Z,1.27
2022-08-21T10:47:33.825Z,2.00
2022-08-21T10:50:28.478Z,1.30
2022-08-21T10:53:29.466Z,0.82
2022-08-21T10:56:35.274Z,0.90
2022-08-21T10:59:38.596Z,2.15
2022-08-21T11:02:33.156Z,1.10
2022-08-21T11:05:14.559Z,1.00
2022-08-21T11:08:16.908Z,1.05
2022-08-21T11:11:15.772Z,1.27
2022-08-21T11:13:54.847Z,1.10
2022-08-21T11:16:47.481Z,1.60
2022-08-21T11:19:41.991Z,1.20
2022-08-21T11:22:26.580Z,0.90
2022-08-21T11:25:09.346Z,1.20
2022-08-21T11:27:45.250Z,1.38
2022-08-21T11:30:13.827Z,1.00
2022-08-21T11:32:50.727Z,1.30
2022-08-21T11:35:41.910Z,1.38
2022-08-21T11:38:31.059Z,1.40
2022-08-21T11:41:26.113Z,1.20
2022-08-21T11:44:55.639Z,1.38
2022-08-21T11:47:56.605Z,1.00
2022-08-21T11:50:35.280Z,1.40
2022-08-21T11:53:40.742Z,1.13
2022-08-21T11:56:28.760Z,1.00
2022-08-21T11:59:08.250Z,1.08
2022-08-21T12:01:46.323Z,1.00
2022-08-21T12:04:35.009Z,1.02
2022-08-21T12:07:43.540Z,0.93
2022-08-21T12:10:23.282Z,1.42
2022-08-21T12:12:50.085Z,0.88
2022-08-21T12:15:23.015Z,1.55
2022-08-21T12:18:23.593Z,1.20
2022-08-21T12:21:25.501Z,0.98
2022-08-21T12:24:13.616Z,1.10
2022-08-21T12:26:57.838Z,1.05
2022-08-21T12:29:38.263Z,1.35
2022-08-21T12:32:11.136Z,1.25
2022-08-21T12:34:47.360Z,1.20
2022-08-21T12:37:42.520Z,2.95
2022-08-21T12:40:31.951Z,1.00
2022-08-21T12:43:03.104Z,1.08
2022-08-21T12:45:42.820Z,1.00
2022-08-21T12:48:51.571Z,1.00
2022-08-21T12:51:36.028Z,1.10
2022-08-21T12:54:03.220Z,0.90
2022-08-21T12:56:35.215Z,1.00
2022-08-21T12:59:12.106Z,1.48
2022-08-21T13:01:55.740Z,1.48
2022-08-21T13:04:38.377Z,1.05
2022-08-21T13:07:13.223Z,0.90
2022-08-21T13:09:59.093Z,1.13
2022-08-21T13:12:32.291Z,0.90
2022-08-21T13:15:08.831Z,0.88
2022-08-21T13:17:41.012Z,0.80
2022-08-21T13:20:41.831Z,1.17
2022-08-21T13:23:27.772Z,1.00
2022-08-21T13:25:56.790Z,1.02
2022-08-21T13:28:26.655Z,1.45
2022-08-21T13:30:56.749Z,1.13
2022-08-21T13:33:37.327Z,1.10
2022-08-21T13:36:27.029Z,0.93
2022-08-21T13:38:55.307Z,1.08
2022-08-21T13:41:28.853Z,1.38
2022-08-21T13:44:05.267Z,0.95
2022-08-21T13:46:36.613Z,0.77
2022-08-21T13:49:07.334Z,1.15
2022-08-21T13:51:37.271Z,1.08
2022-08-21T13:54:36.669Z,1.17
2022-08-21T13:57:05.097Z,0.95
2022-08-21T13:59:36.600Z,1.08
2022-08-21T14:02:19.159Z,1.02
2022-08-21T14:04:58.641Z,0.88
2022-08-21T14:07:40.853Z,1.10
2022-08-21T14:10:23.443Z,0.93
2022-08-21T14:13:01.764Z,0.85
2022-08-21T14:15:33.804Z,1.10
2022-08-21T14:18:20.725Z,0.95
2022-08-21T14:20:49.693Z,1.08
2022-08-21T14:23:28.677Z,1.17
2022-08-21T14:26:02.483Z,0.80
2022-08-21T14:28:39.866Z,1.00
2022-08-21T14:31:22.962Z,1.23
2022-08-21T14:33:50.029Z,0.90
2022-08-21T14:36:16.792Z,0.80
2022-08-21T14:38:45.880Z,0.73
2022-08-21T14:41:28.462Z,1.00
2022-08-21T14:44:06.110Z,0.82
2022-08-21T14:46:40.859Z,1.00
2022-08-21T14:49:27.379Z,0.90
2022-08-21T14:51:59.111Z,0.85
2022-08-21T14:54:33.191Z,0.95
2022-08-21T14:57:10.033Z,0.75
2022-08-21T14:59:38.149Z,0.70
2022-08-21T15:02:06.740Z,0.88
2022-08-21T15:04:34.929Z,0.77
2022-08-21T15:07:02.491Z,1.00
2022-08-21T15:09:29.577Z,0.75
2022-08-21T15:12:01.712Z,0.90
2022-08-21T15:14:35.804Z,1.00
2022-08-21T15:17:04.547Z,0.95
2022-08-21T15:19:31.425Z,1.08
2022-08-21T15:21:58.740Z,1.55
2022-08-21T15:24:26.509Z,1.08
2022-08-21T15:26:55.415Z,1.35
2022-08-21T15:29:23.216Z,1.02
2022-08-21T15:31:59.529Z,1.15
2022-08-21T15:34:30.268Z,0.80
2022-08-21T15:36:59.131Z,1.08
2022-08-21T15:39:30.155Z,0.95
2022-08-21T15:42:02.789Z,1.48
2022-08-21T15:44:43.484Z,1.05
2022-08-21T15:47:36.565Z,0.77
2022-08-21T15:50:07.988Z,1.27
2022-08-21T15:52:35.675Z,0.95
2022-08-21T15:55:02.652Z,1.02
2022-08-21T15:57:29.397Z,1.27
2022-08-21T16:00:09.005Z,0.90
2022-08-21T16:02:35.853Z,1.00
2022-08-21T16:05:03.793Z,0.85
2022-08-21T16:07:30.663Z,0.95
2022-08-21T16:09:57.503Z,0.95
2022-08-21T16:12:33.856Z,0.82
2022-08-21T16:15:04.793Z,1.15
2022-08-21T16:17:35.619Z,1.10
2022-08-21T16:20:09.119Z,0.95
2022-08-21T16:22:44.538Z,1.15
2022-08-21T16:25:14.444Z,1.30
2022-08-21T16:27:45.405Z,1.73
2022-08-21T16:30:16.005Z,1.58
2022-08-21T16:32:44.184Z,1.15
2022-08-21T16:35:19.023Z,1.40
2022-08-21T16:37:48.978Z,1.58
2022-08-21T16:40:19.344Z,0.90
2022-08-21T16:42:46.359Z,1.10
2022-08-21T16:45:18.651Z,1.20
2022-08-21T16:47:45.550Z,1.10
2022-08-21T16:50:22.124Z,0.60
2022-08-21T16:52:49.802Z,1.00
2022-08-21T16:55:17.317Z,0.77
2022-08-21T16:57:44.409Z,0.77
2022-08-21T17:00:13.133Z,1.27
2022-08-21T17:02:49.380Z,1.52
2022-08-21T17:05:17.185Z,0.98
2022-08-21T17:07:44.847Z,1.05
2022-08-21T17:10:15.676Z,1.15
2022-08-21T17:12:47.207Z,0.85
2022-08-21T17:15:23.343Z,1.30
2022-08-21T17:17:51.140Z,1.00
2022-08-21T17:20:20.559Z,1.27
2022-08-21T17:22:47.601Z,0.95
2022-08-21T17:25:14.734Z,1.02
2022-08-21T17:27:43.997Z,1.23
2022-08-21T17:30:13.615Z,0.93
2022-08-21T17:32:41.905Z,0.98
2022-08-21T17:35:10.021Z,0.90
2022-08-21T17:37:39.618Z,0.82
2022-08-21T17:40:13.025Z,1.45
2022-08-21T17:42:43.638Z,1.20
2022-08-21T17:45:15.190Z,1.23
2022-08-21T17:47:45.734Z,2.22
2022-08-21T17:50:18.736Z,1.60
2022-08-21T17:52:49.616Z,1.13
2022-08-21T17:55:18.772Z,0.82
2022-08-21T17:57:48.468Z,0.75
2022-08-21T18:00:18.887Z,0.80
2022-08-21T18:02:51.087Z,1.05
2022-08-21T18:05:18.114Z,0.77
2022-08-21T18:07:45.171Z,0.80
2022-08-21T18:10:13.151Z,0.90
2022-08-21T18:12:43.041Z,1.08
2022-08-21T18:15:15.561Z,0.80
2022-08-21T18:17:46.699Z,1.25
2022-08-21T18:20:16.117Z,1.30
2022-08-21T18:22:42.989Z,1.38
2022-08-21T18:25:10.207Z,0.98
2022-08-21T18:27:38.121Z,1.90
2022-08-21T18:30:07.862Z,1.70
2022-08-21T18:32:35.064Z,1.05
2022-08-21T18:35:06.788Z,0.90
2022-08-21T18:37:42.386Z,1.15
2022-08-21T18:40:10.682Z,0.90
2022-08-21T18:42:55.262Z,2.67
2022-08-21T18:45:24.436Z,1.40
2022-08-21T18:47:55.148Z,1.50
2022-08-21T18:50:27.933Z,1.20
2022-08-21T18:52:58.414Z,1.52
2022-08-21T18:55:27.470Z,1.48
2022-08-21T18:57:57.397Z,2.50
2022-08-21T19:00:36.533Z,1.17
2022-08-21T19:03:21.872Z,2.55
2022-08-21T19:05:53.785Z,1.58
2022-08-21T19:08:28.635Z,1.30
2022-08-21T19:10:58.427Z,1.10
2022-08-21T19:13:30.261Z,0.98
2022-08-21T19:15:59.977Z,1.30
2022-08-21T19:18:28.658Z,1.70
2022-08-21T19:20:57.386Z,1.63
2022-08-21T19:23:29.225Z,1.52
2022-08-21T19:26:01.161Z,1.70
2022-08-21T19:28:36.233Z,1.90
2022-08-21T19:31:16.929Z,2.20
2022-08-21T19:34:01.572Z,2.03
2022-08-21T19:36:45.897Z,1.95
2022-08-21T19:39:15.689Z,1.88
2022-08-21T19:41:51.492Z,1.73
2022-08-21T19:44:25.935Z,1.88
2022-08-21T19:46:55.206Z,1.55
2022-08-21T19:52:17.355Z,1.85
2022-08-21T19:54:45.398Z,1.50
2022-08-21T19:57:12.847Z,1.77
2022-08-21T19:59:42.039Z,1.85
2022-08-21T20:02:12.022Z,1.63
2022-08-21T20:04:40.099Z,1.70
2022-08-21T20:07:25.151Z,1.67
2022-08-21T20:09:57.734Z,1.70
2022-08-21T20:12:25.179Z,1.35
2022-08-21T20:14:53.242Z,1.45
2022-08-21T20:17:21.153Z,1.38
2022-08-21T20:19:53.935Z,1.80
2022-08-21T20:22:21.640Z,1.30
2022-08-21T20:24:51.484Z,1.63
2022-08-21T20:27:29.019Z,1.50
2022-08-21T20:29:58.441Z,1.20
2022-08-21T20:32:26.175Z,1.60
2022-08-21T20:34:53.702Z,1.13
2022-08-21T20:37:35.841Z,1.20
2022-08-21T20:40:13.013Z,1.85
2022-08-21T20:42:45.215Z,2.17
2022-08-21T20:45:26.137Z,1.80
2022-08-21T20:48:06.406Z,1.40
2022-08-21T20:50:40.044Z,1.70
2022-08-21T20:53:23.444Z,2.55
2022-08-21T20:55:51.214Z,1.50
2022-08-21T20:58:42.331Z,1.27
2022-08-21T21:01:10.608Z,1.48
2022-08-21T21:03:47.148Z,1.50
2022-08-21T21:06:28.148Z,1.52
2022-08-21T21:09:07.779Z,1.63
2022-08-21T21:11:55.184Z,1.60
2022-08-21T21:14:45.157Z,1.50
2022-08-21T21:17:32.030Z,1.23
2022-08-21T21:20:20.912Z,1.80
2022-08-21T21:23:09.186Z,1.58
2022-08-21T21:25:53.786Z,1.45
2022-08-21T21:29:10.483Z,1.27
2022-08-21T21:31:39.009Z,1.60
2022-08-21T21:34:06.553Z,1.60
2022-08-21T21:36:56.503Z,1.92
2022-08-21T21:39:55.609Z,1.58
2022-08-21T21:43:00.310Z,1.52
2022-08-21T21:45:40.290Z,1.38
2022-08-21T21:48:51.839Z,1.45
2022-08-21T21:52:00.066Z,1.50
2022-08-21T21:55:02.481Z,1.27
2022-08-21T21:57:45.620Z,1.70
2022-08-21T22:00:26.640Z,1.90
2022-08-21T22:03:43.318Z,1.50
2022-08-21T22:06:46.372Z,2.13
2022-08-21T22:09:41.157Z,2.00
2022-08-21T22:13:09.927Z,2.10
2022-08-21T22:15:38.182Z,1.35
2022-08-21T22:18:17.408Z,1.67
2022-08-21T22:21:02.520Z,2.38
2022-08-21T22:23:39.987Z,2.15
2022-08-21T22:26:16.566Z,1.80
2022-08-21T22:28:49.625Z,1.95
2022-08-21T22:31:34.834Z,1.65
2022-08-21T22:34:18.410Z,2.47
2022-08-21T22:36:56.833Z,1.60
2022-08-21T22:39:54.279Z,2.40
2022-08-21T22:42:26.057Z,1.70
2022-08-21T22:45:00.421Z,1.50
2022-08-21T22:47:42.475Z,1.65
2022-08-21T22:50:25.970Z,1.30
2022-08-21T22:53:08.553Z,1.40
2022-08-21T22:55:57.554Z,1.95
2022-08-21T22:58:35.268Z,1.65
2022-08-21T23:01:33.373Z,1.65
2022-08-21T23:04:20.791Z,1.58
2022-08-21T23:07:03.160Z,1.48
2022-08-21T23:09:46.264Z,1.67
2022-08-21T23:12:39.601Z,1.75
2022-08-21T23:15:17.906Z,1.58
2022-08-21T23:17:59.069Z,2.45
2022-08-21T23:20:49.781Z,2.00
2022-08-21T23:23:27.840Z,2.00
2022-08-21T23:26:34.053Z,2.55
2022-08-21T23:29:51.704Z,1.30
2022-08-21T23:32:52.273Z,2.05
2022-08-21T23:36:06.273Z,2.10
2022-08-21T23:39:22.489Z,1.90
2022-08-21T23:42:09.181Z,1.73
2022-08-21T23:45:17.765Z,1.75
2022-08-21T23:48:19.886Z,1.85
2022-08-21T23:51:13.096Z,1.60
2022-08-21T23:54:17.781Z,1.70
2022-08-21T23:57:24.965Z,2.30
